Weather History for Boonville, MO

Change the Weather History Date:

Saturday, May 19, 2012

  Actual Average Record
Temperature  
Mean Temperature 74 °F -  
Max Temperature 87 °F 78 °F 90 °F (1962)
Min Temperature 62 °F 55 °F 35 °F (1968)
Cooling Degree Days 10    
Growing Degree Days 24 (Base 50)    
Moisture  
Dew Point 58 °F    
Average Humidity 54    
Maximum Humidity 79    
Minimum Humidity 32    
Precipitation  
Precipitation 0.00 in - - ()
Sea Level Pressure  
Sea Level Pressure 29.93 in    
Wind  
Wind Speed 9 mph (SSE)    
Max Wind Speed 21 mph    
Max Gust Speed 26 mph    
Visibility 10 miles    
Events      
Averages and records for this station are not official NWS values.
T = Trace of Precipitation, MM = Missing Value Source: NWS Daily Summary

Daily Weather History Graph

Daily Weather History Graph

Search for Another Location

Airport:

Trip Planner

Search our weather history database for the weather conditions in past years. The results will help you decide how hot, cold, wet, or windy it might be!

Date:

Astronomy

May. 19, 2012 Rise Set
Actual Time 5:54 AM CDT 8:20 PM CDT
Civil Twilight 5:23 AM CDT 8:51 PM CDT
Nautical Twilight 4:46 AM CDT 9:28 PM CDT
Astronomical Twilight 4:04 AM CDT 10:10 PM CDT
Moon 4:57 AM CDT (5/19) 7:25 PM CDT (5/19)
Length of Visible Light 15h 27m
Length of Day
14h 26m
Waning Crescent, 1% of the Moon is Illuminated
May 19
Waning Crescent
May 20
New
May 28
First Quarter
Jun 4
Full
Jun 11
Last Quarter

Hourly Weather History & Observations

Time (CDT) Temp. Heat Index Dew Point Humidity Pressure Visibility Wind Dir Wind Speed Gust Speed Precip Events Conditions
12:15 AM 71.8 °F - 56.3 °F 58% 29.90 in 10.0 mi SE 9.2 mph - N/A   Clear
12:35 AM 71.8 °F - 56.1 °F 58% 29.90 in 10.0 mi SSE 9.2 mph - N/A   Clear
12:55 AM 71.6 °F - 56.1 °F 58% 29.90 in 10.0 mi SSE 9.2 mph - N/A   Clear
1:15 AM 70.9 °F - 56.1 °F 59% 29.89 in 10.0 mi SSE 8.1 mph - N/A   Clear
1:35 AM 70.3 °F - 56.1 °F 61% 29.89 in 10.0 mi SSE 8.1 mph - N/A   Clear
1:55 AM 69.8 °F - 55.9 °F 61% 29.89 in 10.0 mi SE 8.1 mph - N/A   Clear
2:15 AM 68.9 °F - 55.9 °F 63% 29.89 in 10.0 mi SE 6.9 mph - N/A   Clear
2:35 AM 68.5 °F - 55.9 °F 64% 29.89 in 10.0 mi SSE 8.1 mph - N/A   Clear
2:55 AM 68.2 °F - 55.9 °F 65% 29.89 in 10.0 mi SE 8.1 mph - N/A   Clear
3:15 AM 67.5 °F - 55.9 °F 66% 29.90 in 10.0 mi SSE 4.6 mph - N/A   Clear
3:35 AM 66.6 °F - 55.9 °F 69% 29.90 in 10.0 mi Calm Calm - N/A   Clear
3:55 AM 67.5 °F - 55.8 °F 66% 29.91 in 10.0 mi Calm Calm - N/A   Clear
4:15 AM 66.7 °F - 55.6 °F 67% 29.91 in 10.0 mi SSE 3.5 mph - N/A   Clear
4:35 AM 65.8 °F - 55.8 °F 70% 29.92 in 10.0 mi Calm Calm - N/A   Clear
4:55 AM 66.2 °F - 55.9 °F 69% 29.92 in 10.0 mi SSE 3.5 mph - N/A   Clear
5:15 AM 65.1 °F - 55.9 °F 72% 29.92 in 10.0 mi SSE 5.8 mph - N/A   Clear
5:35 AM 63.7 °F - 56.1 °F 76% 29.92 in 10.0 mi SSE 4.6 mph - N/A   Clear
5:55 AM 62.6 °F - 55.9 °F 79% 29.92 in 10.0 mi SSE 3.5 mph - N/A   Clear
6:15 AM 62.8 °F - 56.3 °F 79% 29.93 in 10.0 mi SE 5.8 mph - N/A   Clear
6:35 AM 63.9 °F - 56.8 °F 78% 29.93 in 10.0 mi SSE 4.6 mph - N/A   Clear
6:55 AM 65.8 °F - 57.6 °F 75% 29.94 in 10.0 mi SSE 5.8 mph - N/A   Clear
7:15 AM 68.4 °F - 58.5 °F 71% 29.95 in 10.0 mi South 6.9 mph - N/A   Clear
7:35 AM 70.2 °F - 58.8 °F 67% 29.95 in 10.0 mi South 8.1 mph - N/A   Clear
7:55 AM 71.6 °F - 59.0 °F 64% 29.94 in 10.0 mi South 9.2 mph - N/A   Clear
8:15 AM 72.5 °F - 59.2 °F 63% 29.93 in 10.0 mi SSE 10.4 mph - N/A   Clear
8:35 AM 74.7 °F - 59.9 °F 60% 29.94 in 10.0 mi South 10.4 mph - N/A   Clear
8:55 AM 76.3 °F - 59.9 °F 57% 29.94 in 10.0 mi SSE 10.4 mph - N/A   Clear
9:15 AM 78.1 °F - 59.9 °F 53% 29.95 in 10.0 mi South 11.5 mph - N/A   Clear
9:35 AM 79.5 °F - 59.9 °F 51% 29.96 in 10.0 mi South 11.5 mph - N/A   Clear
9:55 AM 80.2 °F 80.9 °F 59.4 °F 49% 29.96 in 10.0 mi SSE 11.5 mph 17.3 mph N/A   Clear
10:15 AM 81.7 °F 81.9 °F 59.2 °F 46% 29.96 in 10.0 mi South 12.7 mph 18.4 mph N/A   Clear
10:35 AM 82.8 °F 82.4 °F 57.4 °F 42% 29.97 in 10.0 mi South 11.5 mph 16.1 mph N/A   Clear
10:55 AM 83.8 °F 82.7 °F 54.9 °F 37% 29.98 in 10.0 mi SSW 11.5 mph 20.7 mph N/A   Clear
11:15 AM 84.2 °F 82.8 °F 54.0 °F 35% 29.98 in 10.0 mi SW 12.7 mph 20.7 mph N/A   Clear
11:35 AM 84.7 °F - 52.7 °F 33% 29.98 in 10.0 mi South 11.5 mph 23.0 mph N/A   Clear
11:55 AM 85.5 °F - 52.7 °F 32% 29.98 in 10.0 mi South 13.8 mph 19.6 mph N/A   Clear
12:15 PM 85.8 °F 84.0 °F 53.2 °F 33% 29.98 in 10.0 mi South 15.0 mph 24.2 mph N/A   Clear
12:35 PM 86.5 °F 84.6 °F 53.6 °F 32% 29.96 in 10.0 mi South 18.4 mph 23.0 mph N/A   Clear
12:55 PM 86.0 °F 84.2 °F 54.1 °F 33% 29.96 in 10.0 mi South 10.4 mph 21.9 mph N/A   Clear
1:15 PM 86.4 °F 84.7 °F 54.5 °F 34% 29.95 in 10.0 mi SSE 20.7 mph 26.5 mph N/A   Clear
1:35 PM 87.6 °F 85.7 °F 54.7 °F 32% 29.95 in 10.0 mi SSE 16.1 mph 24.2 mph N/A   Clear
1:55 PM 86.7 °F 85.3 °F 55.9 °F 35% 29.94 in 10.0 mi SSE 17.3 mph 25.3 mph N/A   Clear
2:15 PM 86.0 °F 84.7 °F 55.8 °F 36% 29.93 in 10.0 mi SSE 15.0 mph 25.3 mph N/A   Clear
2:35 PM 85.6 °F 84.3 °F 55.6 °F 36% 29.93 in 10.0 mi SSE 18.4 mph 24.2 mph N/A   Clear
2:55 PM 85.3 °F 84.3 °F 56.7 °F 38% 29.93 in 10.0 mi SSE 16.1 mph 21.9 mph N/A   Clear
3:15 PM 85.3 °F 84.1 °F 56.5 °F 37% 29.93 in 10.0 mi South 13.8 mph 24.2 mph N/A   Clear
3:35 PM 85.3 °F 84.3 °F 57.2 °F 38% 29.92 in 10.0 mi SSE 15.0 mph 20.7 mph N/A   Clear
3:55 PM 85.1 °F 84.4 °F 58.1 °F 40% 29.91 in 10.0 mi SSE 11.5 mph - N/A   Clear
4:15 PM 84.6 °F 84.2 °F 59.0 °F 42% 29.90 in 10.0 mi SSE 16.1 mph 23.0 mph N/A   Clear
4:35 PM 84.2 °F 83.7 °F 58.5 °F 41% 29.89 in 10.0 mi SSE 17.3 mph 20.7 mph N/A   Clear
4:55 PM 83.5 °F 83.1 °F 58.3 °F 42% 29.90 in 10.0 mi South 10.4 mph - N/A   Clear
5:15 PM 85.1 °F 84.6 °F 59.0 °F 41% 29.90 in 10.0 mi SSE 12.7 mph 17.3 mph N/A   Clear
5:35 PM 86.2 °F 85.6 °F 59.0 °F 40% 29.90 in 10.0 mi SSE 18.4 mph 21.9 mph N/A   Clear
5:55 PM 86.4 °F 85.2 °F 57.6 °F 37% 29.89 in 10.0 mi South 16.1 mph - N/A   Clear
6:15 PM 86.0 °F 84.9 °F 57.0 °F 37% 29.89 in 10.0 mi South 13.8 mph 23.0 mph N/A   Clear
6:35 PM 84.9 °F 84.2 °F 58.1 °F 40% 29.89 in 10.0 mi SSE 13.8 mph - N/A   Clear
6:55 PM 83.3 °F 83.1 °F 58.8 °F 43% 29.89 in 10.0 mi SSE 10.4 mph - N/A   Clear
7:15 PM 81.7 °F 82.0 °F 59.5 °F 47% 29.89 in 10.0 mi SSE 8.1 mph - N/A   Clear
7:35 PM 80.6 °F 81.4 °F 60.3 °F 50% 29.90 in 10.0 mi SSE 8.1 mph - N/A   Clear
7:55 PM 79.0 °F - 61.0 °F 54% 29.90 in 10.0 mi SSE 5.8 mph - N/A   Clear
8:15 PM 77.0 °F - 61.5 °F 59% 29.91 in 10.0 mi SE 5.8 mph - N/A   Clear
8:35 PM 75.9 °F - 61.7 °F 61% 29.92 in 10.0 mi SSE 3.5 mph - N/A   Clear
8:55 PM 75.6 °F - 61.9 °F 62% 29.93 in 10.0 mi Calm Calm - N/A   Clear
9:15 PM 75.4 °F - 62.1 °F 63% 29.94 in 10.0 mi SE 3.5 mph - N/A   Clear
9:35 PM 75.2 °F - 62.4 °F 64% 29.94 in 10.0 mi ESE 5.8 mph - N/A   Clear
9:55 PM 76.3 °F - 62.4 °F 62% 29.96 in 10.0 mi East 4.6 mph - N/A   Clear
10:15 PM 76.3 °F - 62.2 °F 62% 29.98 in 10.0 mi ESE 3.5 mph - N/A   Clear
10:35 PM 75.0 °F - 62.2 °F 64% 29.98 in 10.0 mi SSE 6.9 mph - N/A   Clear
10:55 PM 73.9 °F - 62.6 °F 68% 29.98 in 10.0 mi SE 5.8 mph - N/A   Clear
11:15 PM 72.9 °F - 62.6 °F 70% 29.98 in 10.0 mi SSE 5.8 mph - N/A   Clear
11:35 PM 72.5 °F - 62.2 °F 70% 29.98 in 10.0 mi SSE 6.9 mph - N/A   Clear
11:55 PM 72.5 °F - 62.4 °F 71% 29.99 in 10.0 mi South 3.5 mph - N/A   Clear